createdAt,value
2022-08-04T00:02:02.619Z,69.11
2022-08-04T00:04:35.611Z,69.56
2022-08-04T00:07:11.721Z,69.78
2022-08-04T00:09:53.323Z,69.90
2022-08-04T00:12:31.275Z,69.47
2022-08-04T00:15:00.256Z,68.92
2022-08-04T00:17:32.848Z,69.27
2022-08-04T00:20:04.989Z,68.38
2022-08-04T00:22:34.728Z,68.53
2022-08-04T00:25:05.388Z,67.75
2022-08-04T00:27:33.278Z,67.97
2022-08-04T00:30:05.023Z,67.47
2022-08-04T00:32:34.491Z,67.38
2022-08-04T00:35:02.194Z,66.13
2022-08-04T00:37:29.028Z,66.05
2022-08-04T00:39:57.057Z,65.42
2022-08-04T00:42:30.774Z,65.48
2022-08-04T00:45:29.216Z,66.53
2022-08-04T00:48:33.697Z,66.94
2022-08-04T00:51:30.311Z,67.16
2022-08-04T00:54:24.026Z,67.67
2022-08-04T00:57:33.802Z,67.63
2022-08-04T01:00:12.049Z,67.65
2022-08-04T01:03:10.559Z,66.67
2022-08-04T01:06:00.638Z,66.76
2022-08-04T01:08:36.473Z,66.63
2022-08-04T01:11:56.931Z,64.76
2022-08-04T01:14:52.931Z,65.63
2022-08-04T01:17:33.691Z,66.31
2022-08-04T01:20:07.536Z,66.58
2022-08-04T01:22:34.076Z,64.42
2022-08-04T01:25:39.091Z,64.68
2022-08-04T01:28:06.411Z,65.04
2022-08-04T01:30:34.038Z,62.17
2022-08-04T01:33:14.453Z,61.60
2022-08-04T01:36:02.292Z,62.66
2022-08-04T01:38:34.149Z,62.89
2022-08-04T01:41:05.914Z,62.92
2022-08-04T01:43:40.917Z,62.80
2022-08-04T01:46:11.971Z,63.97
2022-08-04T01:48:45.539Z,64.04
2022-08-04T01:51:12.485Z,64.44
2022-08-04T01:53:42.441Z,64.96
2022-08-04T01:56:10.995Z,64.86
2022-08-04T01:58:40.179Z,65.18
2022-08-04T02:01:09.890Z,65.44
2022-08-04T02:04:20.162Z,66.81
2022-08-04T02:06:31.621Z,67.06
2022-08-04T02:09:27.572Z,66.76
2022-08-04T02:12:29.579Z,66.75
2022-08-04T02:15:17.513Z,67.75
2022-08-04T02:17:44.146Z,67.31
2022-08-04T02:20:25.838Z,68.82
2022-08-04T02:23:27.543Z,68.64
2022-08-04T02:26:22.502Z,69.47
2022-08-04T02:29:11.135Z,69.47
2022-08-04T02:31:56.643Z,70.00
2022-08-04T02:35:08.303Z,70.40
2022-08-04T02:37:36.265Z,71.35
2022-08-04T02:40:07.074Z,71.84
2022-08-04T02:42:34.196Z,73.01
2022-08-04T02:45:01.723Z,72.66
2022-08-04T02:48:08.106Z,73.22
2022-08-04T02:50:28.239Z,73.85
2022-08-04T02:53:00.624Z,74.42
2022-08-04T02:55:29.891Z,74.17
2022-08-04T02:57:59.461Z,73.59
2022-08-04T03:00:26.927Z,73.78
2022-08-04T03:03:02.564Z,72.88
2022-08-04T03:06:13.907Z,72.62
2022-08-04T03:09:18.469Z,72.36
2022-08-04T03:12:05.972Z,71.90
2022-08-04T03:15:15.852Z,72.17
2022-08-04T03:17:53.519Z,72.17
2022-08-04T03:21:05.801Z,73.08
2022-08-04T03:23:57.066Z,73.48
2022-08-04T03:26:52.486Z,73.05
2022-08-04T03:29:55.478Z,73.42
2022-08-04T03:32:52.566Z,73.41
2022-08-04T03:35:41.143Z,74.32
2022-08-04T03:38:41.442Z,73.87
2022-08-04T03:41:50.872Z,73.69
2022-08-04T03:44:41.579Z,73.75
2022-08-04T03:47:42.240Z,73.10
2022-08-04T03:50:41.486Z,72.46
2022-08-04T03:53:33.138Z,73.23
2022-08-04T03:56:11.781Z,73.28
2022-08-04T03:58:41.412Z,72.47
2022-08-04T04:01:14.067Z,72.80
2022-08-04T04:03:43.624Z,73.15
2022-08-04T04:06:19.331Z,74.30
2022-08-04T04:09:24.714Z,74.46
2022-08-04T04:12:23.720Z,73.93
2022-08-04T04:15:05.535Z,74.44
2022-08-04T04:18:09.652Z,74.89
2022-08-04T04:21:02.611Z,74.35
2022-08-04T04:23:44.177Z,74.38
2022-08-04T04:26:39.120Z,74.78
2022-08-04T04:29:29.711Z,75.03
2022-08-04T04:32:14.858Z,74.59
2022-08-04T04:35:11.440Z,74.22
2022-08-04T04:37:48.711Z,75.21
2022-08-04T04:40:32.927Z,74.58
2022-08-04T04:43:02.791Z,73.65
2022-08-04T04:45:56.979Z,73.73
2022-08-04T04:48:41.858Z,71.03
2022-08-04T04:51:34.053Z,69.55
2022-08-04T04:54:17.628Z,70.46
2022-08-04T04:56:48.895Z,69.21
2022-08-04T04:59:22.185Z,69.09
2022-08-04T05:02:10.805Z,67.04
2022-08-04T05:05:22.728Z,67.42
2022-08-04T05:07:53.233Z,66.14
2022-08-04T05:10:51.463Z,64.76
2022-08-04T05:14:34.479Z,64.17
2022-08-04T05:16:34.544Z,63.67
2022-08-04T05:19:24.933Z,60.66
2022-08-04T05:21:59.875Z,59.79
2022-08-04T05:24:29.352Z,59.32
2022-08-04T05:27:06.291Z,58.19
2022-08-04T05:29:37.371Z,60.19
2022-08-04T05:32:14.360Z,56.39
2022-08-04T05:34:48.114Z,56.31
2022-08-04T05:37:20.793Z,54.26
2022-08-04T05:39:56.010Z,53.82
2022-08-04T05:42:23.431Z,52.11
2022-08-04T05:44:52.100Z,50.45
2022-08-04T05:47:21.630Z,50.94
2022-08-04T05:49:55.660Z,48.91
2022-08-04T05:52:31.088Z,49.02
2022-08-04T05:55:00.577Z,45.52
2022-08-04T05:57:28.598Z,45.21
2022-08-04T05:59:57.602Z,44.20
2022-08-04T06:02:25.736Z,46.27
2022-08-04T06:04:53.823Z,45.25
2022-08-04T06:07:20.989Z,42.73
2022-08-04T06:09:48.417Z,43.07
2022-08-04T06:12:31.058Z,42.35
2022-08-04T06:15:00.196Z,43.20
2022-08-04T06:18:33.146Z,43.15
2022-08-04T06:20:22.822Z,44.02
2022-08-04T06:22:54.592Z,43.13
2022-08-04T06:25:25.924Z,43.83
2022-08-04T06:27:54.561Z,42.21
2022-08-04T06:30:28.412Z,41.37
2022-08-04T06:33:03.638Z,43.70
2022-08-04T06:35:32.692Z,45.00
2022-08-04T06:38:01.611Z,39.97
2022-08-04T06:40:31.736Z,41.47
2022-08-04T06:43:02.042Z,41.85
2022-08-04T06:45:29.852Z,42.24
2022-08-04T06:47:56.835Z,39.49
2022-08-04T06:51:26.688Z,39.46
2022-08-04T06:53:11.774Z,40.45
2022-08-04T06:55:40.988Z,39.16
2022-08-04T06:58:08.434Z,38.73
2022-08-04T07:00:38.000Z,36.16
2022-08-04T07:03:05.838Z,37.20
2022-08-04T07:05:33.032Z,38.12
2022-08-04T07:08:01.357Z,36.87
2022-08-04T07:10:28.740Z,37.38
2022-08-04T07:12:57.357Z,37.40
2022-08-04T07:15:25.014Z,36.70
2022-08-04T07:17:53.315Z,36.65
2022-08-04T07:20:34.225Z,35.70
2022-08-04T07:23:07.144Z,37.18
2022-08-04T07:25:59.509Z,40.02
2022-08-04T07:28:27.745Z,35.22
2022-08-04T07:30:56.099Z,35.02
2022-08-04T07:33:23.347Z,35.83
2022-08-04T07:36:04.546Z,36.60
2022-08-04T07:38:37.518Z,36.03
2022-08-04T07:44:00.397Z,35.58
2022-08-04T07:46:27.335Z,38.03
2022-08-04T07:48:59.859Z,38.92
2022-08-04T07:51:27.218Z,36.58
2022-08-04T07:53:56.586Z,37.08
2022-08-04T07:56:23.882Z,37.21
2022-08-04T07:58:50.733Z,37.34
2022-08-04T08:01:19.042Z,35.83
2022-08-04T08:03:47.393Z,37.09
2022-08-04T08:06:31.376Z,35.88
2022-08-04T08:09:13.264Z,39.22
2022-08-04T08:12:38.720Z,36.01
2022-08-04T08:14:37.205Z,34.98
2022-08-04T08:17:05.167Z,35.22
2022-08-04T08:19:33.247Z,35.73
2022-08-04T08:22:01.397Z,38.05
2022-08-04T08:24:34.898Z,36.02
2022-08-04T08:27:04.414Z,36.11
2022-08-04T08:29:34.061Z,34.69
2022-08-04T08:32:07.885Z,34.09
2022-08-04T08:34:36.143Z,34.38
2022-08-04T08:37:15.121Z,34.01
2022-08-04T08:39:47.755Z,32.86
2022-08-04T08:42:17.341Z,35.65
2022-08-04T08:45:12.718Z,34.10
2022-08-04T08:48:00.110Z,31.01
2022-08-04T08:51:07.580Z,32.86
2022-08-04T08:54:13.240Z,32.61
2022-08-04T08:56:48.274Z,32.07
2022-08-04T08:59:53.800Z,32.99
2022-08-04T09:02:45.467Z,31.32
2022-08-04T09:05:43.501Z,32.23
2022-08-04T09:08:21.004Z,32.37
2022-08-04T09:11:12.790Z,31.90
2022-08-04T09:13:56.492Z,32.73
2022-08-04T09:16:49.381Z,32.16
2022-08-04T09:19:38.935Z,33.07
2022-08-04T09:22:15.497Z,33.73
2022-08-04T09:25:02.997Z,32.71
2022-08-04T09:27:35.923Z,31.69
2022-08-04T09:30:12.429Z,29.42
2022-08-04T09:32:41.613Z,29.84
2022-08-04T09:35:13.330Z,29.74
2022-08-04T09:38:00.733Z,29.85
2022-08-04T09:40:53.040Z,28.66
2022-08-04T09:44:01.201Z,29.21
2022-08-04T09:47:07.489Z,28.76
2022-08-04T09:49:41.634Z,29.59
2022-08-04T09:52:21.326Z,29.52
2022-08-04T09:55:16.974Z,31.06
2022-08-04T09:57:55.676Z,32.18
2022-08-04T10:00:36.357Z,31.29
2022-08-04T10:03:13.774Z,30.83
2022-08-04T10:05:48.345Z,32.22
2022-08-04T10:08:35.236Z,31.83
2022-08-04T10:11:14.817Z,31.55
2022-08-04T10:14:02.593Z,30.33
2022-08-04T10:17:12.384Z,31.66
2022-08-04T10:19:41.959Z,32.44
2022-08-04T10:22:27.967Z,31.61
2022-08-04T10:26:06.178Z,30.54
2022-08-04T10:28:32.344Z,31.67
2022-08-04T10:31:04.602Z,30.83
2022-08-04T10:33:53.242Z,31.66
2022-08-04T10:36:24.085Z,30.15
2022-08-04T10:39:00.254Z,31.80
2022-08-04T10:41:35.932Z,31.68
2022-08-04T10:44:23.531Z,29.82
2022-08-04T10:46:55.850Z,29.20
2022-08-04T10:49:44.996Z,28.31
2022-08-04T10:52:22.904Z,27.67
2022-08-04T10:55:18.762Z,29.77
2022-08-04T10:58:07.551Z,27.23
2022-08-04T11:00:38.894Z,27.72
2022-08-04T11:03:27.071Z,28.17
2022-08-04T11:05:55.807Z,27.67
2022-08-04T11:08:37.792Z,27.74
2022-08-04T11:12:00.832Z,27.24
2022-08-04T11:14:47.646Z,25.79
2022-08-04T11:17:26.395Z,25.51
2022-08-04T11:20:31.763Z,26.53
2022-08-04T11:23:07.456Z,24.50
2022-08-04T11:25:57.481Z,28.27
2022-08-04T11:28:32.237Z,26.34
2022-08-04T11:31:08.204Z,25.47
2022-08-04T11:33:43.674Z,25.71
2022-08-04T11:36:20.998Z,27.05
2022-08-04T11:39:04.856Z,26.66
2022-08-04T11:41:53.587Z,26.27
2022-08-04T11:44:31.799Z,26.47
2022-08-04T11:47:08.822Z,26.24
2022-08-04T11:49:57.561Z,26.45
2022-08-04T11:52:27.106Z,27.39
2022-08-04T11:54:55.470Z,28.30
2022-08-04T11:57:36.299Z,29.21
2022-08-04T12:00:12.887Z,27.49
2022-08-04T12:02:49.701Z,28.40
2022-08-04T12:05:35.614Z,27.71
2022-08-04T12:08:09.378Z,27.57
2022-08-04T12:11:25.170Z,24.80
2022-08-04T12:14:16.335Z,24.80
2022-08-04T12:16:52.767Z,25.09
2022-08-04T12:19:41.975Z,26.87
2022-08-04T12:22:22.569Z,26.01
2022-08-04T12:25:00.055Z,26.42
2022-08-04T12:27:49.397Z,25.16
2022-08-04T12:30:59.157Z,23.04
2022-08-04T12:33:10.877Z,24.74
2022-08-04T12:36:10.304Z,24.61
2022-08-04T12:38:35.438Z,23.32
2022-08-04T12:41:05.438Z,22.33
2022-08-04T12:43:41.106Z,26.34
2022-08-04T12:46:10.637Z,23.62
2022-08-04T12:48:39.434Z,23.22
2022-08-04T12:52:06.866Z,23.17
2022-08-04T12:53:57.472Z,23.32
2022-08-04T12:56:28.566Z,23.58
2022-08-04T12:59:03.363Z,23.17
2022-08-04T13:02:07.366Z,23.38
2022-08-04T13:04:21.931Z,23.88
2022-08-04T13:07:07.862Z,23.37
2022-08-04T13:09:37.788Z,23.23
2022-08-04T13:12:12.198Z,24.03
2022-08-04T13:14:44.550Z,23.67
2022-08-04T13:17:12.520Z,24.08
2022-08-04T13:19:45.633Z,24.96
2022-08-04T13:22:16.408Z,25.84
2022-08-04T13:25:18.005Z,25.31
2022-08-04T13:27:43.218Z,25.07
2022-08-04T13:30:14.745Z,25.45
2022-08-04T13:32:57.421Z,25.95
2022-08-04T13:35:55.303Z,24.98
2022-08-04T13:38:15.315Z,26.31
2022-08-04T13:40:44.115Z,25.99
2022-08-04T13:44:15.558Z,25.69
2022-08-04T13:46:34.127Z,26.28
2022-08-04T13:51:59.132Z,27.15
2022-08-04T13:54:47.512Z,28.03
2022-08-04T13:57:30.295Z,27.74
2022-08-04T14:00:06.930Z,24.90
2022-08-04T14:02:45.235Z,26.46
2022-08-04T14:05:18.799Z,25.29
2022-08-04T14:07:50.861Z,24.39
2022-08-04T14:10:18.083Z,23.64
2022-08-04T14:12:49.557Z,24.20
2022-08-04T14:16:02.950Z,26.10
2022-08-04T14:18:32.495Z,25.73
2022-08-04T14:21:10.744Z,25.14
2022-08-04T14:23:46.960Z,25.77
2022-08-04T14:26:34.071Z,26.10
2022-08-04T14:29:26.742Z,26.16
2022-08-04T14:32:05.580Z,26.50
2022-08-04T14:34:41.318Z,27.19
2022-08-04T14:37:16.547Z,27.38
2022-08-04T14:40:17.296Z,27.72
2022-08-04T14:42:54.674Z,27.71
2022-08-04T14:45:54.961Z,29.64
2022-08-04T14:48:22.243Z,28.26
2022-08-04T14:50:50.461Z,27.77
2022-08-04T14:53:22.562Z,27.90
2022-08-04T14:55:51.953Z,28.50
2022-08-04T14:58:35.374Z,26.99
2022-08-04T15:01:11.844Z,27.70
2022-08-04T15:03:50.379Z,27.37
2022-08-04T15:06:27.599Z,27.66
2022-08-04T15:08:57.117Z,28.51
2022-08-04T15:11:24.782Z,27.17
2022-08-04T15:13:56.619Z,27.11
2022-08-04T15:16:25.870Z,28.36
2022-08-04T15:18:54.755Z,27.30
2022-08-04T15:21:26.026Z,28.15
2022-08-04T15:23:52.860Z,28.83
2022-08-04T15:26:33.927Z,28.30
2022-08-04T15:29:16.645Z,29.67
2022-08-04T15:32:06.779Z,31.09
2022-08-04T15:34:48.316Z,30.64
2022-08-04T15:37:29.624Z,30.24
2022-08-04T15:40:04.442Z,30.32
2022-08-04T15:42:46.562Z,31.10
2022-08-04T15:46:43.440Z,30.85
2022-08-04T15:48:13.910Z,31.16
2022-08-04T15:51:00.615Z,31.44
2022-08-04T15:54:03.712Z,30.49
2022-08-04T15:56:26.537Z,30.86
2022-08-04T15:58:55.393Z,29.88
2022-08-04T16:01:22.977Z,29.01
2022-08-04T16:04:00.973Z,29.14
2022-08-04T16:06:29.882Z,29.42
2022-08-04T16:09:05.093Z,29.68
2022-08-04T16:11:33.365Z,29.76
2022-08-04T16:14:00.312Z,30.08
2022-08-04T16:16:31.780Z,30.65
2022-08-04T16:19:35.499Z,30.19
2022-08-04T16:22:04.200Z,30.28
2022-08-04T16:24:39.150Z,30.67
2022-08-04T16:27:08.377Z,30.75
2022-08-04T16:29:44.265Z,30.91
2022-08-04T16:32:13.939Z,30.27
2022-08-04T16:35:01.480Z,30.66
2022-08-04T16:37:36.129Z,31.13
2022-08-04T16:40:34.718Z,31.52
2022-08-04T16:43:17.829Z,31.37
2022-08-04T16:45:49.473Z,31.85
2022-08-04T16:48:18.675Z,32.68
2022-08-04T16:50:50.655Z,32.74
2022-08-04T16:53:51.590Z,33.30
2022-08-04T16:56:09.050Z,33.69
2022-08-04T16:58:36.914Z,34.57
2022-08-04T17:01:21.790Z,33.58
2022-08-04T17:04:05.114Z,33.87
2022-08-04T17:06:36.377Z,34.63
2022-08-04T17:09:10.771Z,35.61
2022-08-04T17:11:37.520Z,37.36
2022-08-04T17:14:06.123Z,38.05
2022-08-04T17:16:41.599Z,36.40
2022-08-04T17:19:19.962Z,37.83
2022-08-04T17:21:53.419Z,41.19
2022-08-04T17:24:20.215Z,43.66
2022-08-04T17:26:54.297Z,46.41
2022-08-04T17:29:43.379Z,46.33
2022-08-04T17:32:21.218Z,43.39
2022-08-04T17:34:54.456Z,46.31
2022-08-04T17:37:39.950Z,46.47
2022-08-04T17:40:22.629Z,47.26
2022-08-04T17:44:01.390Z,44.65
2022-08-04T17:46:30.255Z,48.33
2022-08-04T17:49:18.425Z,49.29
2022-08-04T17:52:04.738Z,46.50
2022-08-04T17:54:37.147Z,49.99
2022-08-04T17:57:22.773Z,50.90
2022-08-04T17:59:56.389Z,47.98
2022-08-04T18:02:32.919Z,46.06
2022-08-04T18:05:07.581Z,45.48
2022-08-04T18:08:41.500Z,47.78
2022-08-04T18:10:55.401Z,49.81
2022-08-04T18:13:27.974Z,48.04
2022-08-04T18:16:03.222Z,45.61
2022-08-04T18:18:30.387Z,46.31
2022-08-04T18:20:59.891Z,44.76
2022-08-04T18:23:31.933Z,46.02
2022-08-04T18:25:59.603Z,47.54
2022-08-04T18:28:33.331Z,48.44
2022-08-04T18:31:01.505Z,47.46
2022-08-04T18:33:40.205Z,45.15
2022-08-04T18:36:33.182Z,46.52
2022-08-04T18:39:13.530Z,45.27
2022-08-04T18:42:02.408Z,47.92
2022-08-04T18:44:32.234Z,45.31
2022-08-04T18:47:19.502Z,47.63
2022-08-04T18:50:59.521Z,49.91
2022-08-04T18:52:34.293Z,49.76
2022-08-04T18:55:01.638Z,50.23
2022-08-04T18:57:59.704Z,47.36
2022-08-04T19:00:16.872Z,48.61
2022-08-04T19:02:47.528Z,47.54
2022-08-04T19:05:17.465Z,47.39
2022-08-04T19:08:02.113Z,46.92
2022-08-04T19:10:29.340Z,47.35
2022-08-04T19:12:56.511Z,46.71
2022-08-04T19:15:34.608Z,46.34
2022-08-04T19:18:02.303Z,46.45
2022-08-04T19:20:33.751Z,45.78
2022-08-04T19:24:28.951Z,46.04
2022-08-04T19:26:01.912Z,44.73
2022-08-04T19:28:35.056Z,44.33
2022-08-04T19:31:07.458Z,44.28
2022-08-04T19:33:59.612Z,44.94
2022-08-04T19:36:27.572Z,45.24
2022-08-04T19:38:55.814Z,45.59
2022-08-04T19:41:22.781Z,45.12
2022-08-04T19:43:53.415Z,46.51
2022-08-04T19:46:21.562Z,46.80
2022-08-04T19:48:59.745Z,47.56
2022-08-04T19:51:29.170Z,48.11
2022-08-04T19:56:48.725Z,50.62
2022-08-04T19:59:16.605Z,51.64
2022-08-04T20:04:31.336Z,54.03
2022-08-04T20:06:58.229Z,54.92
2022-08-04T20:09:27.058Z,56.06
2022-08-04T20:11:55.733Z,55.78
2022-08-04T20:14:31.096Z,57.05
2022-08-04T20:17:00.542Z,57.06
2022-08-04T20:19:27.684Z,57.28
2022-08-04T20:21:57.655Z,57.57
2022-08-04T20:24:37.684Z,58.34
2022-08-04T20:27:14.610Z,58.58
2022-08-04T20:29:48.662Z,58.28
2022-08-04T20:32:22.301Z,58.49
2022-08-04T20:34:51.377Z,58.58
2022-08-04T20:37:20.683Z,59.36
2022-08-04T20:39:54.871Z,59.46
2022-08-04T20:42:33.719Z,59.17
2022-08-04T20:45:01.316Z,60.38
2022-08-04T20:47:33.673Z,59.56
2022-08-04T20:50:04.521Z,60.52
2022-08-04T20:52:33.172Z,61.17
2022-08-04T20:55:04.806Z,60.89
2022-08-04T20:57:47.452Z,61.05
2022-08-04T21:00:17.683Z,61.07
2022-08-04T21:02:56.241Z,61.52
2022-08-04T21:05:23.572Z,61.12
2022-08-04T21:07:56.732Z,62.02
2022-08-04T21:10:27.408Z,61.77
2022-08-04T21:12:54.956Z,61.80
2022-08-04T21:15:25.634Z,61.53
2022-08-04T21:17:59.320Z,61.87
2022-08-04T21:20:31.627Z,62.40
2022-08-04T21:23:02.228Z,62.45
2022-08-04T21:25:30.694Z,62.62
2022-08-04T21:27:58.725Z,63.89
2022-08-04T21:30:28.657Z,63.44
2022-08-04T21:32:55.719Z,63.23
2022-08-04T21:35:37.729Z,63.59
2022-08-04T21:38:17.256Z,64.70
2022-08-04T21:41:01.403Z,64.41
2022-08-04T21:43:29.932Z,64.93
2022-08-04T21:46:09.515Z,65.02
2022-08-04T21:48:36.242Z,65.46
2022-08-04T21:52:00.043Z,65.50
2022-08-04T21:54:17.065Z,65.85
2022-08-04T21:56:49.233Z,65.53
2022-08-04T21:59:28.407Z,66.13
2022-08-04T22:01:57.973Z,66.82
2022-08-04T22:04:27.348Z,66.17
2022-08-04T22:06:54.629Z,66.53
2022-08-04T22:09:21.876Z,66.22
2022-08-04T22:11:51.563Z,67.36
2022-08-04T22:14:27.219Z,67.40
2022-08-04T22:16:56.613Z,67.29
2022-08-04T22:19:40.993Z,67.53
2022-08-04T22:22:12.653Z,67.85
2022-08-04T22:24:51.883Z,66.93
2022-08-04T22:27:36.971Z,67.23
2022-08-04T22:30:16.906Z,67.80
2022-08-04T22:32:47.051Z,67.50
2022-08-04T22:35:35.654Z,67.95
2022-08-04T22:38:06.121Z,67.44
2022-08-04T22:40:34.619Z,67.19
2022-08-04T22:43:03.125Z,68.43
2022-08-04T22:45:43.327Z,68.00
2022-08-04T22:48:11.647Z,68.22
2022-08-04T22:50:38.424Z,67.72
2022-08-04T22:53:06.601Z,67.12
2022-08-04T22:56:07.433Z,67.75
2022-08-04T22:58:20.225Z,67.80
2022-08-04T23:00:52.916Z,68.42
2022-08-04T23:03:36.977Z,67.15
2022-08-04T23:06:10.674Z,68.12
2022-08-04T23:08:38.865Z,67.32
2022-08-04T23:11:10.738Z,67.19
2022-08-04T23:13:37.889Z,67.04
2022-08-04T23:16:06.531Z,67.54
2022-08-04T23:18:37.183Z,67.62
2022-08-04T23:21:10.125Z,67.69
2022-08-04T23:23:45.213Z,67.27
2022-08-04T23:26:21.877Z,68.64
2022-08-04T23:28:55.882Z,68.15
2022-08-04T23:31:22.964Z,68.68
2022-08-04T23:33:51.046Z,68.28
2022-08-04T23:36:19.142Z,68.39
2022-08-04T23:38:59.667Z,68.60
2022-08-04T23:41:54.790Z,67.27
2022-08-04T23:44:23.476Z,67.52
2022-08-04T23:47:00.759Z,67.78
2022-08-04T23:49:40.743Z,68.04
2022-08-04T23:52:15.747Z,68.25
2022-08-04T23:54:54.693Z,68.15
2022-08-04T23:57:22.135Z,68.09
